createdAt,value
2016-10-29T10:03:24.057Z,49.32
2016-10-29T10:04:37.763Z,32.43
2016-10-29T10:05:51.466Z,33.12
2016-10-29T10:07:05.169Z,42.59
2016-10-29T10:08:48.467Z,50.2
2016-10-29T10:10:00.889Z,48.59
2016-10-29T10:11:12.032Z,50.05
2016-10-29T10:12:23.197Z,48.9
2016-10-29T10:13:36.922Z,49.19
2016-10-29T10:14:46.764Z,49
2016-10-29T10:16:00.488Z,49
2016-10-29T10:17:14.202Z,50.89
2016-10-29T10:18:25.363Z,50.02
2016-10-29T10:19:39.070Z,49.55
2016-10-29T10:20:52.775Z,50.5
2016-10-29T10:22:06.497Z,48.95
2016-10-29T10:23:20.218Z,47.94
2016-10-29T10:24:33.924Z,47.06
2016-10-29T10:25:47.646Z,46.7
2016-10-29T10:27:01.359Z,45.36
2016-10-29T10:28:15.079Z,45.07
2016-10-29T10:29:27.471Z,45.48
2016-10-29T10:30:39.913Z,45.65
2016-10-29T10:31:52.319Z,44.79
2016-10-29T10:33:04.737Z,45.74
2016-10-29T10:34:18.449Z,45.94
2016-10-29T10:35:30.961Z,46.03
2016-10-29T10:36:44.690Z,45.96
2016-10-29T10:37:58.381Z,46.62
2016-10-29T10:39:09.501Z,46.05
2016-10-29T10:40:23.209Z,46.72
2016-10-29T10:41:36.917Z,45.48
2016-10-29T10:42:49.374Z,45.31
2016-10-29T10:44:03.079Z,44.45
2016-10-29T10:45:15.533Z,45.31
2016-10-29T10:46:27.944Z,45.02
2016-10-29T10:47:41.641Z,45.12
2016-10-29T10:48:55.344Z,45.79
2016-10-29T10:50:09.044Z,45.4
2016-10-29T10:51:22.743Z,46.53
2016-10-29T10:52:36.493Z,46.7
2016-10-29T10:53:50.231Z,46.05
2016-10-29T10:55:03.961Z,45.96
2016-10-29T10:56:16.384Z,44.45
2016-10-29T10:57:28.976Z,45.02
2016-10-29T10:58:42.721Z,42.44
2016-10-29T10:59:56.432Z,41.71
2016-10-29T11:01:08.866Z,41.06
2016-10-29T11:02:21.343Z,42.77
2016-10-29T11:03:34.020Z,41.86
2016-10-29T11:04:46.474Z,40.92
2016-10-29T11:06:00.288Z,39.04
2016-10-29T11:07:13.983Z,40.31
2016-10-29T11:08:26.446Z,39.12
2016-10-29T11:09:38.900Z,39.22
2016-10-29T11:10:52.629Z,39.48
2016-10-29T11:12:06.391Z,39.89
2016-10-29T11:13:20.089Z,41.6
2016-10-29T11:14:32.667Z,43.59
2016-10-29T11:15:46.435Z,43.26
2016-10-29T11:17:00.151Z,38.51
2016-10-29T11:18:13.863Z,37.34
2016-10-29T11:19:27.576Z,36.34
2016-10-29T11:20:41.326Z,34.65
2016-10-29T11:21:53.777Z,33.64
2016-10-29T11:23:06.211Z,35.91
2016-10-29T11:24:19.898Z,37.32
2016-10-29T11:25:31.256Z,35.61
2016-10-29T11:26:43.688Z,36.09
2016-10-29T11:27:56.248Z,34.09
2016-10-29T11:29:09.963Z,35.91
2016-10-29T11:30:22.376Z,37.13
2016-10-29T11:31:36.108Z,35.69
2016-10-29T11:32:49.814Z,35.43
2016-10-29T11:34:03.794Z,32.18
2016-10-29T11:35:17.531Z,32.97
2016-10-29T11:36:31.484Z,32.68
2016-10-29T11:39:06.594Z,40.66
2016-10-29T11:40:29.537Z,42.26
2016-10-29T11:41:44.878Z,34.46
2016-10-29T11:43:00.105Z,35.91
2016-10-29T11:44:15.292Z,36.11
2016-10-29T11:45:28.081Z,35.89
2016-10-29T11:46:43.498Z,36.16
2016-10-29T11:47:58.660Z,36.18
2016-10-29T11:49:12.579Z,36.36
2016-10-29T11:50:26.488Z,37.87
2016-10-29T11:51:41.663Z,37.3
2016-10-29T11:52:55.555Z,35.3
2016-10-29T11:54:10.990Z,33.7
2016-10-29T11:55:23.476Z,32.97
2016-10-29T11:56:35.915Z,36.22
2016-10-29T11:57:49.651Z,32.42
2016-10-29T11:59:03.714Z,28.96
2016-10-29T12:00:14.929Z,29.38
2016-10-29T12:01:28.626Z,30.11
2016-10-29T12:02:42.354Z,30.69
2016-10-29T12:03:54.755Z,31.75
2016-10-29T12:05:07.159Z,34.78
2016-10-29T12:06:20.942Z,31.8
2016-10-29T12:07:32.122Z,32.09
2016-10-29T12:08:45.824Z,34.94
2016-10-29T12:09:59.566Z,38.47
2016-10-29T12:11:13.321Z,32.1
2016-10-29T12:12:27.281Z,27.97
2016-10-29T12:13:41.065Z,22.56
2016-10-29T12:14:54.775Z,19.98
2016-10-29T12:16:08.495Z,18.1
2016-10-29T12:17:22.255Z,15.89
2016-10-29T12:18:35.957Z,17.95
2016-10-29T12:19:49.679Z,17.03
2016-10-29T12:21:02.171Z,17.14
2016-10-29T12:22:15.881Z,18.21
2016-10-29T12:23:28.339Z,19.62
2016-10-29T12:24:42.071Z,17.13
2016-10-29T12:25:55.822Z,16.47
2016-10-29T12:27:09.684Z,18.79
2016-10-29T12:28:23.424Z,18.19
2016-10-29T12:29:37.132Z,18.57
2016-10-29T12:30:50.855Z,17.89
2016-10-29T12:32:02.030Z,15.87
2016-10-29T12:33:15.749Z,16.86
2016-10-29T12:34:28.174Z,16.77
2016-10-29T12:35:41.949Z,15.39
2016-10-29T12:36:54.393Z,15.5
2016-10-29T12:38:08.123Z,15.2
2016-10-29T12:39:21.834Z,17.54
2016-10-29T12:40:35.596Z,17.91
2016-10-29T12:41:48.054Z,15.86
2016-10-29T12:42:59.182Z,14.26
2016-10-29T12:44:12.942Z,14.84
2016-10-29T12:45:26.641Z,15.03
2016-10-29T12:46:39.099Z,15.31
2016-10-29T12:47:51.551Z,13
2016-10-29T12:49:05.290Z,12.52
2016-10-29T12:50:19.019Z,12.45
2016-10-29T12:51:30.256Z,13.87
2016-10-29T12:52:43.965Z,13.09
2016-10-29T12:53:57.663Z,12.63
2016-10-29T12:55:42.477Z,13.31
2016-10-29T12:56:56.177Z,13.68
2016-10-29T12:58:08.601Z,14.56
2016-10-29T12:59:21.044Z,15.89
2016-10-29T13:00:33.462Z,16.46
2016-10-29T13:01:45.953Z,22.65
2016-10-29T13:02:57.101Z,26.1
2016-10-29T13:04:09.565Z,27.4
2016-10-29T13:05:22.026Z,27.02
2016-10-29T13:06:33.168Z,27.38
2016-10-29T13:07:45.627Z,28.45
2016-10-29T13:08:58.027Z,29.79
2016-10-29T13:10:10.486Z,30.54
2016-10-29T13:11:24.180Z,32.52
2016-10-29T13:12:36.615Z,33.37
2016-10-29T13:13:50.314Z,33.83
2016-10-29T13:15:04.005Z,34.04
2016-10-29T13:16:16.551Z,35.46
2016-10-29T13:17:30.247Z,35.65
2016-10-29T13:18:43.999Z,35.25
2016-10-29T13:19:57.702Z,35.46
2016-10-29T13:21:11.427Z,36.21
2016-10-29T13:22:23.853Z,36.49
2016-10-29T13:23:37.603Z,35.63
2016-10-29T13:24:47.455Z,36.04
2016-10-29T13:25:59.868Z,36.13
2016-10-29T13:27:12.300Z,35.08
2016-10-29T13:28:26.032Z,36.34
2016-10-29T13:29:38.458Z,38.03
2016-10-29T13:30:52.196Z,38.51
2016-10-29T13:32:04.608Z,38.01
2016-10-29T13:33:18.298Z,38.41
2016-10-29T13:34:29.440Z,37.84
2016-10-29T13:35:43.274Z,39.47
2016-10-29T13:36:57.030Z,40.59
2016-10-29T13:38:10.741Z,40.77
2016-10-29T13:39:24.465Z,41.91
2016-10-29T13:40:36.882Z,41.99
2016-10-29T13:41:50.644Z,42.66
2016-10-29T13:43:04.396Z,43.04
2016-10-29T13:44:18.117Z,43.33
2016-10-29T13:45:31.915Z,43.23
2016-10-29T13:46:45.713Z,43.43
2016-10-29T13:47:58.234Z,44.19
2016-10-29T13:49:11.915Z,44.76
2016-10-29T13:50:25.662Z,45.15
